Time;durP1;ratioP1;P1;durP2;ratioP2;P2;SDS_P1;SDS_P2;PMS_P1;PMS_P2;Temp;Humidity;BMP_temperature;BMP_pressure;BME280_temperature;BME280_humidity;BME280_pressure;Samples;Min_cycle;Max_cycle;Signal;HPM_P1;HPM_P2
2022/03/31 00:00:38;;;;;;;9.13;5.18;;;5.60;99.90;;;;;;5072792;28;20086;-84
2022/03/31 00:03:07;;;;;;;7.40;5.07;;;5.50;99.90;;;;;;5069280;28;20458;-85
2022/03/31 00:05:33;;;;;;;8.43;5.30;;;5.50;99.90;;;;;;5067861;28;20048;-83
2022/03/31 00:08:00;;;;;;;11.45;5.57;;;5.50;99.90;;;;;;5061689;28;20441;-84
2022/03/31 00:10:29;;;;;;;6.47;4.97;;;5.60;99.70;;;;;;5057963;28;20083;-83
2022/03/31 00:12:56;;;;;;;7.13;4.65;;;5.70;99.70;;;;;;5055861;28;20517;-84
2022/03/31 00:15:24;;;;;;;7.32;5.35;;;5.70;99.60;;;;;;5073194;28;20031;-84
2022/03/31 00:17:49;;;;;;;11.82;5.65;;;5.60;99.70;;;;;;5071568;28;20025;-84
2022/03/31 00:20:15;;;;;;;10.30;5.53;;;5.70;99.70;;;;;;5095282;28;20040;-84
2022/03/31 00:22:41;;;;;;;8.40;5.55;;;5.60;99.60;;;;;;5077150;28;20043;-83
2022/03/31 00:25:08;;;;;;;10.15;5.97;;;5.50;99.80;;;;;;5091380;28;20075;-84
2022/03/31 00:27:35;;;;;;;7.88;5.65;;;5.50;99.90;;;;;;5072506;28;20108;-87
2022/03/31 00:30:01;;;;;;;11.77;6.78;;;5.60;99.80;;;;;;5073127;28;20028;-85
2022/03/31 00:32:26;;;;;;;11.73;6.72;;;5.50;99.90;;;;;;5054196;28;20033;-85
2022/03/31 00:34:52;;;;;;;9.10;6.35;;;5.60;99.80;;;;;;5072114;28;20066;-85
2022/03/31 00:37:18;;;;;;;9.40;6.63;;;5.60;99.90;;;;;;5072805;28;20040;-85
2022/03/31 00:39:44;;;;;;;11.10;6.40;;;5.60;99.90;;;;;;5058959;28;20039;-84
2022/03/31 00:42:10;;;;;;;12.60;7.22;;;5.60;99.90;;;;;;5071771;28;20058;-83
2022/03/31 00:44:36;;;;;;;11.23;6.88;;;5.70;99.90;;;;;;5057612;28;20028;-85
2022/03/31 00:47:03;;;;;;;10.45;7.13;;;5.80;99.80;;;;;;5053336;28;20526;-86
2022/03/31 00:49:29;;;;;;;12.48;7.50;;;5.90;99.50;;;;;;5051122;28;20076;-85
2022/03/31 00:51:55;;;;;;;11.13;7.22;;;5.80;99.50;;;;;;5063282;28;20410;-85
2022/03/31 00:54:25;;;;;;;10.02;8.20;;;5.70;99.80;;;;;;5055032;28;20502;-86
2022/03/31 00:56:51;;;;;;;13.07;7.85;;;5.60;99.80;;;;;;5055407;28;20028;-85
2022/03/31 00:59:18;;;;;;;14.75;6.95;;;5.70;99.70;;;;;;5070892;28;20469;-85
2022/03/31 01:01:45;;;;;;;11.02;7.43;;;5.70;99.50;;;;;;5070146;28;20073;-85
2022/03/31 01:04:11;;;;;;;14.30;8.10;;;5.70;99.60;;;;;;5081943;28;20024;-84
2022/03/31 01:06:37;;;;;;;15.27;8.85;;;5.80;99.50;;;;;;5070914;28;20377;-86
2022/03/31 01:09:04;;;;;;;14.05;8.65;;;5.70;99.60;;;;;;5052999;28;20028;-84
2022/03/31 01:11:30;;;;;;;18.48;10.35;;;5.80;99.50;;;;;;5070974;28;20032;-84
2022/03/31 01:13:56;;;;;;;19.25;11.18;;;5.90;99.40;;;;;;5053899;28;20025;-85
2022/03/31 01:16:22;;;;;;;18.30;12.23;;;5.90;99.20;;;;;;5051455;28;20021;-86
2022/03/31 01:18:50;;;;;;;19.52;12.43;;;5.90;99.00;;;;;;5044453;28;21719;-84
2022/03/31 01:21:16;;;;;;;18.90;11.38;;;5.90;99.00;;;;;;5071179;28;20024;-83
2022/03/31 01:23:43;;;;;;;14.52;10.73;;;5.90;98.50;;;;;;5053944;28;20461;-85
2022/03/31 01:26:10;;;;;;;16.58;10.93;;;5.90;98.60;;;;;;5070847;28;20035;-85
2022/03/31 01:28:40;;;;;;;20.33;10.70;;;5.90;98.70;;;;;;5070190;28;20021;-86
2022/03/31 01:31:05;;;;;;;15.35;10.27;;;5.90;98.50;;;;;;5069738;28;20085;-84
2022/03/31 01:33:31;;;;;;;21.55;12.23;;;5.90;98.50;;;;;;5051881;28;20423;-84
2022/03/31 01:35:57;;;;;;;14.93;10.23;;;6.00;98.40;;;;;;5069410;28;20422;-84
2022/03/31 01:38:22;;;;;;;16.08;10.63;;;6.00;98.20;;;;;;5047788;28;20021;-84
2022/03/31 01:40:48;;;;;;;18.88;10.25;;;6.00;98.10;;;;;;5070052;28;20078;-85
2022/03/31 01:43:14;;;;;;;18.60;10.73;;;6.00;98.10;;;;;;5070599;28;20016;-85
2022/03/31 01:45:40;;;;;;;15.02;9.93;;;6.00;98.00;;;;;;5052311;28;20376;-86
2022/03/31 01:48:06;;;;;;;13.45;9.75;;;6.00;98.10;;;;;;5070651;28;20158;-85
2022/03/31 01:50:32;;;;;;;18.15;9.80;;;6.00;98.10;;;;;;5070120;28;20025;-86
2022/03/31 01:52:57;;;;;;;14.27;9.43;;;5.90;98.20;;;;;;5049358;28;20048;-86
2022/03/31 01:55:23;;;;;;;14.43;9.48;;;5.70;98.60;;;;;;5070428;28;20108;-88
2022/03/31 01:57:49;;;;;;;13.30;7.80;;;5.70;98.70;;;;;;5070730;28;20028;-87
2022/03/31 02:00:15;;;;;;;11.73;7.47;;;5.70;98.80;;;;;;5052300;28;20016;-87
2022/03/31 02:02:42;;;;;;;14.52;8.02;;;5.50;98.90;;;;;;5055342;28;20031;-86
2022/03/31 02:05:08;;;;;;;19.30;8.50;;;5.50;99.10;;;;;;5056640;28;20017;-87
2022/03/31 02:07:34;;;;;;;12.35;7.72;;;5.50;99.00;;;;;;5069132;28;20025;-85
2022/03/31 02:10:00;;;;;;;11.27;7.20;;;5.50;99.00;;;;;;5070627;28;20056;-89
2022/03/31 02:12:26;;;;;;;9.95;7.05;;;5.50;98.90;;;;;;5065026;28;20060;-86
2022/03/31 02:14:51;;;;;;;14.07;7.55;;;5.40;99.10;;;;;;5067740;28;20021;-86
2022/03/31 02:17:17;;;;;;;12.43;7.88;;;5.40;99.00;;;;;;5074564;28;20024;-87
2022/03/31 02:19:43;;;;;;;16.98;7.40;;;5.30;99.20;;;;;;5053200;28;20031;-88
2022/03/31 02:22:09;;;;;;;11.65;7.47;;;5.30;99.30;;;;;;5069942;28;20109;-85
2022/03/31 02:24:35;;;;;;;13.18;7.55;;;5.40;99.10;;;;;;5050288;28;20025;-87
2022/03/31 02:27:01;;;;;;;11.43;6.47;;;5.40;99.00;;;;;;5056567;28;20403;-86
2022/03/31 02:29:27;;;;;;;15.50;7.20;;;5.40;98.90;;;;;;5070552;28;20103;-84
2022/03/31 02:31:53;;;;;;;10.68;6.78;;;5.30;98.80;;;;;;5070621;28;20029;-86
2022/03/31 02:34:19;;;;;;;11.15;7.25;;;5.30;98.90;;;;;;5071039;28;20439;-86
2022/03/31 02:36:46;;;;;;;12.02;7.00;;;5.20;99.00;;;;;;5078366;28;20028;-85
2022/03/31 02:39:12;;;;;;;15.68;7.03;;;5.30;98.90;;;;;;5072322;28;20029;-86
2022/03/31 02:41:38;;;;;;;14.68;6.93;;;5.10;99.00;;;;;;5052194;28;20054;-86
2022/03/31 02:44:05;;;;;;;11.32;8.13;;;5.10;99.00;;;;;;5069050;28;20025;-87
2022/03/31 02:46:31;;;;;;;10.27;7.28;;;5.00;99.00;;;;;;5051067;28;20081;-85
2022/03/31 02:48:59;;;;;;;12.38;7.57;;;5.10;99.00;;;;;;5052072;28;20111;-86
2022/03/31 02:51:25;;;;;;;12.10;8.27;;;5.00;99.30;;;;;;5070181;28;20036;-86
2022/03/31 02:56:35;;;;;;;15.32;8.07;;;4.80;99.50;;;;;;5069934;28;20047;-87
2022/03/31 02:59:01;;;;;;;10.50;7.30;;;4.70;99.40;;;;;;5052782;28;20027;-86
2022/03/31 03:01:27;;;;;;;12.90;9.57;;;4.70;99.50;;;;;;5052145;28;20372;-87
2022/03/31 03:03:54;;;;;;;9.70;7.57;;;4.60;99.70;;;;;;5070606;28;20021;-86
2022/03/31 03:06:20;;;;;;;11.00;7.75;;;4.60;99.70;;;;;;5070003;28;20025;-86
2022/03/31 03:08:46;;;;;;;20.25;9.40;;;4.60;99.70;;;;;;5052092;28;20027;-86
2022/03/31 03:11:12;;;;;;;13.10;8.03;;;4.60;99.70;;;;;;5055300;28;20115;-86
2022/03/31 03:13:37;;;;;;;15.70;8.50;;;4.60;99.80;;;;;;5051571;28;20387;-87
2022/03/31 03:16:08;;;;;;;13.07;8.02;;;4.60;99.60;;;;;;5052494;28;20074;-86
2022/03/31 03:18:34;;;;;;;15.07;8.80;;;4.60;99.60;;;;;;5073746;28;20027;-86
2022/03/31 03:21:01;;;;;;;15.32;8.73;;;4.40;99.80;;;;;;5073623;28;20103;-84
2022/03/31 03:23:27;;;;;;;12.25;7.53;;;4.40;99.70;;;;;;5073885;28;20029;-85
2022/03/31 03:25:52;;;;;;;15.52;9.23;;;4.30;99.90;;;;;;5055249;28;20138;-85
2022/03/31 03:28:18;;;;;;;12.85;9.30;;;4.20;99.90;;;;;;5057880;28;20379;-85
2022/03/31 03:30:43;;;;;;;16.42;9.18;;;4.20;99.90;;;;;;5075646;28;20103;-85
2022/03/31 03:33:09;;;;;;;21.15;10.30;;;4.20;99.90;;;;;;5054162;28;20067;-85
2022/03/31 03:35:34;;;;;;;19.98;9.80;;;4.30;99.90;;;;;;5054242;28;20033;-86
2022/03/31 03:38:00;;;;;;;21.17;9.38;;;4.30;99.90;;;;;;5085196;28;20008;-86
2022/03/31 03:40:25;;;;;;;17.13;9.20;;;4.40;99.90;;;;;;5097036;28;20020;-85
2022/03/31 03:42:53;;;;;;;12.95;8.95;;;4.40;99.90;;;;;;5071441;28;20036;-85
2022/03/31 03:45:18;;;;;;;18.60;10.30;;;4.30;99.90;;;;;;5054131;28;20051;-87
2022/03/31 03:47:44;;;;;;;15.93;9.35;;;4.30;99.90;;;;;;5047896;28;20017;-86
2022/03/31 03:50:11;;;;;;;11.90;8.73;;;4.40;99.90;;;;;;5068404;28;20666;-86
2022/03/31 03:52:36;;;;;;;17.10;9.02;;;4.40;99.90;;;;;;5075617;28;20055;-85
2022/03/31 03:55:03;;;;;;;15.38;8.05;;;4.50;99.90;;;;;;5073323;28;20052;-86
2022/03/31 03:57:30;;;;;;;13.20;8.27;;;4.60;99.90;;;;;;5072178;28;20074;-86
2022/03/31 03:59:56;;;;;;;14.27;7.10;;;4.50;99.90;;;;;;5058282;28;20039;-86
2022/03/31 04:02:21;;;;;;;12.35;6.95;;;4.40;99.90;;;;;;5078239;28;20099;-86
2022/03/31 04:04:47;;;;;;;12.45;6.78;;;4.20;99.90;;;;;;5085706;28;20024;-86
2022/03/31 04:07:13;;;;;;;16.55;7.57;;;4.40;99.90;;;;;;5092613;28;20024;-86
2022/03/31 04:09:38;;;;;;;14.73;7.50;;;4.30;99.90;;;;;;5074807;28;20032;-85
2022/03/31 04:12:04;;;;;;;10.05;6.70;;;4.10;99.90;;;;;;5058265;28;20497;-84
2022/03/31 04:14:30;;;;;;;13.63;7.80;;;4.20;99.90;;;;;;5054769;28;20035;-85
2022/03/31 04:16:56;;;;;;;10.23;6.97;;;4.10;99.90;;;;;;5072765;28;20763;-86
2022/03/31 04:19:22;;;;;;;12.43;7.47;;;4.00;99.90;;;;;;5064942;28;20092;-87
2022/03/31 04:21:47;;;;;;;10.60;6.85;;;4.00;99.90;;;;;;5072336;28;20021;-86
2022/03/31 04:24:13;;;;;;;9.77;6.10;;;4.10;99.90;;;;;;5063553;28;20444;-86
2022/03/31 04:26:38;;;;;;;14.60;7.32;;;4.10;99.90;;;;;;5074468;28;20055;-86
2022/03/31 04:29:08;;;;;;;11.90;6.93;;;4.10;99.90;;;;;;5070808;28;20017;-86
2022/03/31 04:31:37;;;;;;;12.07;6.75;;;4.20;99.90;;;;;;5072474;28;20025;-86
2022/03/31 04:34:03;;;;;;;15.32;7.13;;;4.20;99.90;;;;;;5071628;28;20171;-87
2022/03/31 04:36:29;;;;;;;15.95;8.25;;;4.20;99.90;;;;;;5071423;28;20457;-87
2022/03/31 04:38:54;;;;;;;12.77;7.40;;;4.10;99.90;;;;;;5058399;28;20441;-85
2022/03/31 04:41:20;;;;;;;10.23;6.95;;;4.20;99.90;;;;;;5063671;28;20016;-84
2022/03/31 04:43:50;;;;;;;17.42;7.90;;;4.20;99.90;;;;;;5055035;28;20372;-85
2022/03/31 04:46:15;;;;;;;11.82;7.55;;;4.30;99.90;;;;;;5054166;28;20098;-84
2022/03/31 04:48:41;;;;;;;10.15;6.80;;;4.30;99.90;;;;;;5058024;28;20105;-86
2022/03/31 04:51:08;;;;;;;10.73;6.85;;;4.40;99.90;;;;;;5054745;28;20017;-84
2022/03/31 04:53:33;;;;;;;14.00;7.93;;;4.40;99.90;;;;;;5051102;28;20028;-87
2022/03/31 04:55:59;;;;;;;12.55;6.95;;;4.50;99.90;;;;;;5070844;28;20101;-85
2022/03/31 04:58:24;;;;;;;13.43;7.25;;;4.60;99.80;;;;;;5056450;28;20435;-87
2022/03/31 05:00:50;;;;;;;10.75;6.97;;;4.60;99.70;;;;;;5051529;28;20361;-85
2022/03/31 05:03:16;;;;;;;11.65;7.70;;;4.60;99.60;;;;;;5055497;28;20097;-87
2022/03/31 05:05:41;;;;;;;15.30;7.70;;;4.40;99.80;;;;;;5069947;28;20411;-84
2022/03/31 05:08:08;;;;;;;11.52;7.93;;;4.50;99.90;;;;;;5070283;28;20032;-85
2022/03/31 05:10:34;;;;;;;17.95;7.38;;;4.30;99.90;;;;;;5069661;28;20039;-85
2022/03/31 05:12:59;;;;;;;11.88;7.28;;;4.20;99.90;;;;;;5052767;28;20024;-85
2022/03/31 05:15:25;;;;;;;11.40;7.70;;;4.00;99.90;;;;;;5052514;28;20028;-84
2022/03/31 05:17:50;;;;;;;12.57;7.70;;;4.10;99.90;;;;;;5051525;28;20012;-86
2022/03/31 05:20:16;;;;;;;14.80;8.73;;;4.20;99.90;;;;;;5051294;28;20075;-86
2022/03/31 05:22:42;;;;;;;17.83;7.28;;;4.30;99.90;;;;;;5051568;28;20111;-86
2022/03/31 05:25:10;;;;;;;16.35;8.30;;;4.40;99.90;;;;;;5052549;28;20024;-85
2022/03/31 05:27:46;;;;;;;11.32;7.25;;;4.50;99.70;;;;;;5052329;28;20052;-85
2022/03/31 05:30:19;;;;;;;14.05;8.60;;;4.60;99.50;;;;;;5050785;28;20059;-88
2022/03/31 05:32:45;;;;;;;13.40;8.15;;;4.50;99.50;;;;;;5049598;28;20024;-84
2022/03/31 05:35:11;;;;;;;11.07;7.78;;;4.50;99.40;;;;;;5050473;28;20044;-84
2022/03/31 05:37:37;;;;;;;10.95;8.00;;;4.50;99.60;;;;;;5052193;28;20021;-85
2022/03/31 05:40:05;;;;;;;14.02;9.10;;;4.40;99.50;;;;;;5052050;28;20024;-87
2022/03/31 05:42:32;;;;;;;21.10;9.07;;;4.40;99.40;;;;;;5070027;28;20025;-86
2022/03/31 05:44:59;;;;;;;17.45;10.02;;;4.40;99.50;;;;;;5069596;28;20112;-84
2022/03/31 05:47:25;;;;;;;17.13;8.52;;;4.30;99.40;;;;;;5062084;28;20032;-84
2022/03/31 05:49:51;;;;;;;16.58;10.15;;;4.10;99.90;;;;;;5080816;28;20031;-84
2022/03/31 05:52:16;;;;;;;14.63;9.07;;;4.20;99.80;;;;;;5075919;28;20096;-85
2022/03/31 05:54:43;;;;;;;13.95;8.82;;;4.20;99.80;;;;;;5086976;28;20107;-83
2022/03/31 05:57:11;;;;;;;18.10;10.60;;;4.10;99.80;;;;;;5050757;28;20024;-87
2022/03/31 05:59:37;;;;;;;14.32;9.48;;;4.10;99.80;;;;;;5067537;28;20024;-84
2022/03/31 06:02:02;;;;;;;17.58;10.18;;;4.00;99.90;;;;;;5048882;28;20134;-87
2022/03/31 06:04:28;;;;;;;22.02;9.52;;;4.10;99.90;;;;;;5057279;28;20056;-85
2022/03/31 06:06:53;;;;;;;17.98;10.23;;;4.10;99.80;;;;;;5049680;28;20071;-85
2022/03/31 06:09:19;;;;;;;13.48;9.48;;;4.20;99.70;;;;;;5050357;28;20040;-85
2022/03/31 06:11:45;;;;;;;13.45;10.10;;;3.90;99.90;;;;;;5066585;28;20449;-85
2022/03/31 06:14:11;;;;;;;14.48;10.25;;;3.90;99.90;;;;;;5050471;28;20032;-85
2022/03/31 06:16:38;;;;;;;20.00;9.93;;;3.70;99.90;;;;;;5068372;28;20017;-84
2022/03/31 06:19:04;;;;;;;16.63;10.45;;;3.80;99.90;;;;;;5052311;28;20081;-86
2022/03/31 06:21:30;;;;;;;21.25;10.65;;;3.90;99.90;;;;;;5052501;28;20036;-85
2022/03/31 06:23:56;;;;;;;16.88;10.90;;;4.00;99.90;;;;;;5067163;28;20070;-84
2022/03/31 06:26:22;;;;;;;21.38;11.30;;;3.90;99.90;;;;;;5058674;28;20039;-86
2022/03/31 06:28:47;;;;;;;23.73;12.88;;;4.00;99.90;;;;;;5067920;28;20023;-87
2022/03/31 06:31:14;;;;;;;20.33;12.40;;;3.90;99.90;;;;;;5049020;28;20029;-84
2022/03/31 06:33:40;;;;;;;18.00;11.45;;;3.90;99.90;;;;;;5051132;28;20074;-85
2022/03/31 06:36:06;;;;;;;17.65;10.90;;;3.90;99.90;;;;;;5048960;28;20024;-85
2022/03/31 06:38:31;;;;;;;22.52;12.32;;;4.00;99.90;;;;;;5068513;28;20365;-84
2022/03/31 06:41:06;;;;;;;18.70;11.40;;;4.20;99.90;;;;;;5065799;28;20044;-85
2022/03/31 06:43:33;;;;;;;18.15;11.98;;;4.10;99.90;;;;;;5068311;28;20538;-87
2022/03/31 06:45:58;;;;;;;21.65;13.27;;;4.30;99.90;;;;;;5053582;28;20021;-86
2022/03/31 06:48:26;;;;;;;24.13;13.57;;;4.20;99.90;;;;;;5072651;28;20471;-85
2022/03/31 06:50:52;;;;;;;26.00;13.45;;;4.20;99.90;;;;;;5054738;28;20035;-84
2022/03/31 06:53:18;;;;;;;21.70;13.85;;;4.40;99.90;;;;;;5072642;28;20037;-85
2022/03/31 06:55:43;;;;;;;22.77;13.40;;;4.50;99.90;;;;;;5054106;28;20031;-84
2022/03/31 06:58:09;;;;;;;24.63;14.85;;;4.60;99.80;;;;;;5073126;28;20032;-85
2022/03/31 07:00:34;;;;;;;22.67;13.48;;;4.60;99.60;;;;;;5054013;28;20099;-85
2022/03/31 07:03:00;;;;;;;25.80;15.05;;;4.50;99.90;;;;;;5054530;28;20029;-83
2022/03/31 07:05:26;;;;;;;25.55;15.85;;;4.30;99.90;;;;;;5053970;28;20103;-85
2022/03/31 07:07:52;;;;;;;21.48;14.02;;;4.40;99.90;;;;;;5046580;28;20040;-85
2022/03/31 07:10:18;;;;;;;20.58;13.55;;;4.50;99.90;;;;;;5069935;28;20036;-85
2022/03/31 07:12:44;;;;;;;20.70;14.63;;;4.60;99.60;;;;;;5054065;28;20029;-87
2022/03/31 07:15:10;;;;;;;20.35;15.82;;;4.50;99.50;;;;;;5074044;28;20039;-85
2022/03/31 07:17:36;;;;;;;21.27;14.32;;;4.50;99.40;;;;;;5072138;28;20032;-88
2022/03/31 07:20:02;;;;;;;26.50;15.68;;;4.40;99.80;;;;;;5072197;28;20024;-86
2022/03/31 07:22:27;;;;;;;21.65;14.10;;;4.40;99.80;;;;;;5053837;28;20457;-84
2022/03/31 07:24:53;;;;;;;23.13;16.02;;;4.50;99.90;;;;;;5051671;28;20104;-85
2022/03/31 07:27:19;;;;;;;25.40;15.40;;;4.50;99.60;;;;;;5051193;28;20843;-86
2022/03/31 07:29:45;;;;;;;26.35;14.50;;;4.50;99.70;;;;;;5039666;28;20055;-87
2022/03/31 07:32:11;;;;;;;23.80;14.75;;;4.50;99.70;;;;;;5053989;28;20044;-84
2022/03/31 07:34:37;;;;;;;20.35;14.00;;;4.70;99.70;;;;;;5052548;28;20555;-83
2022/03/31 07:37:04;;;;;;;17.23;10.98;;;4.80;99.40;;;;;;5069550;28;20112;-84
2022/03/31 07:39:29;;;;;;;22.20;14.00;;;4.80;99.20;;;;;;5071315;28;20024;-86
2022/03/31 07:41:55;;;;;;;20.60;13.88;;;4.90;98.50;;;;;;5053750;28;20020;-88
2022/03/31 07:44:20;;;;;;;19.38;14.02;;;4.80;98.60;;;;;;5070922;28;20036;-82
2022/03/31 07:46:46;;;;;;;18.77;13.00;;;4.80;98.90;;;;;;5071075;28;20024;-86
2022/03/31 07:49:13;;;;;;;24.50;13.90;;;4.80;98.50;;;;;;5055370;28;20035;-86
2022/03/31 07:51:38;;;;;;;23.98;14.38;;;4.80;98.30;;;;;;5077400;28;20017;-84
2022/03/31 07:54:04;;;;;;;22.08;13.25;;;4.60;98.30;;;;;;5077208;28;20035;-85
2022/03/31 07:56:29;;;;;;;15.48;12.68;;;4.70;98.50;;;;;;5052292;28;20116;-87
2022/03/31 07:58:55;;;;;;;22.25;14.68;;;4.80;98.20;;;;;;5054366;28;20557;-86
2022/03/31 08:01:20;;;;;;;22.58;13.45;;;4.70;97.90;;;;;;5049182;28;20446;-88
2022/03/31 08:03:46;;;;;;;22.10;13.10;;;4.70;98.00;;;;;;5061719;28;20086;-86
2022/03/31 08:06:12;;;;;;;22.30;13.25;;;4.60;98.30;;;;;;5056212;28;20388;-87
2022/03/31 08:08:38;;;;;;;20.85;14.32;;;4.80;98.10;;;;;;5070270;28;20100;-86
2022/03/31 08:11:04;;;;;;;17.42;12.60;;;4.90;97.40;;;;;;5050799;28;20527;-87
2022/03/31 08:13:29;;;;;;;22.05;11.45;;;4.90;97.50;;;;;;5053795;28;20033;-86
2022/03/31 08:15:57;;;;;;;17.92;12.05;;;4.90;97.10;;;;;;5062165;28;20055;-86
2022/03/31 08:18:26;;;;;;;18.55;12.20;;;5.00;97.50;;;;;;5052035;28;20350;-86
2022/03/31 08:20:53;;;;;;;15.98;11.70;;;5.10;97.10;;;;;;5040707;28;20033;-87
2022/03/31 08:23:18;;;;;;;17.73;12.90;;;5.10;97.30;;;;;;5054311;28;20052;-85
2022/03/31 08:25:44;;;;;;;22.08;12.07;;;5.00;97.30;;;;;;5047422;28;20196;-87
2022/03/31 08:28:10;;;;;;;19.13;11.65;;;5.00;97.40;;;;;;5069818;28;20027;-85
2022/03/31 08:30:35;;;;;;;17.27;11.35;;;5.10;97.30;;;;;;5052667;28;20107;-87
2022/03/31 08:33:01;;;;;;;18.10;12.15;;;5.10;96.90;;;;;;5051713;28;20027;-87
2022/03/31 08:35:28;;;;;;;19.77;10.65;;;5.20;96.80;;;;;;5070135;28;20564;-87
2022/03/31 08:37:54;;;;;;;19.30;11.02;;;5.40;96.70;;;;;;5052176;28;20025;-85
2022/03/31 08:40:20;;;;;;;17.13;12.15;;;5.30;96.30;;;;;;5048465;28;20028;-88
2022/03/31 08:42:45;;;;;;;14.82;11.73;;;5.20;96.50;;;;;;5031823;28;20032;-87
2022/03/31 08:45:14;;;;;;;16.05;10.75;;;5.30;96.60;;;;;;5065101;28;20025;-86
2022/03/31 08:47:42;;;;;;;14.70;11.15;;;5.50;96.40;;;;;;5069969;28;20028;-85
2022/03/31 08:50:09;;;;;;;15.02;11.15;;;5.70;96.10;;;;;;5052349;28;20162;-87
2022/03/31 08:52:34;;;;;;;14.73;11.20;;;5.90;95.50;;;;;;5051336;28;21642;-87
2022/03/31 08:55:00;;;;;;;14.38;10.30;;;6.10;95.40;;;;;;5051284;28;20116;-86
2022/03/31 08:57:49;;;;;;;21.38;12.32;;;6.10;94.60;;;;;;5069156;28;20404;-87
2022/03/31 09:00:17;;;;;;;18.05;10.75;;;6.10;95.10;;;;;;5069178;28;20021;-87
2022/03/31 09:02:54;;;;;;;16.17;9.95;;;6.20;95.30;;;;;;5070286;28;20070;-86
2022/03/31 09:05:19;;;;;;;15.38;10.63;;;6.30;94.70;;;;;;5056250;28;20025;-86
2022/03/31 09:08:00;;;;;;;20.90;10.80;;;6.40;94.10;;;;;;5056998;28;20098;-86
2022/03/31 09:10:26;;;;;;;13.82;10.40;;;6.50;94.10;;;;;;5069727;28;20028;-86
2022/03/31 09:12:52;;;;;;;16.83;10.60;;;6.40;94.10;;;;;;5069124;28;20068;-86
2022/03/31 09:15:17;;;;;;;16.83;10.93;;;6.50;94.20;;;;;;5069097;28;20063;-86
2022/03/31 09:17:43;;;;;;;14.68;10.15;;;6.50;94.00;;;;;;5070087;28;20029;-88
2022/03/31 09:20:08;;;;;;;14.90;10.95;;;6.50;94.40;;;;;;5069357;28;20052;-86
2022/03/31 09:22:45;;;;;;;15.70;10.43;;;6.50;93.90;;;;;;5050687;28;20024;-87
2022/03/31 09:25:11;;;;;;;15.52;10.43;;;6.50;94.30;;;;;;5069521;28;20025;-87
2022/03/31 09:27:36;;;;;;;15.18;10.20;;;6.40;93.80;;;;;;5069994;28;20043;-85
2022/03/31 09:30:08;;;;;;;13.43;9.57;;;6.30;94.30;;;;;;5069584;28;20039;-87
2022/03/31 09:32:34;;;;;;;16.95;10.15;;;6.30;94.30;;;;;;5062562;28;20056;-86
2022/03/31 09:35:06;;;;;;;13.75;9.13;;;6.40;94.40;;;;;;5068139;28;20055;-86
2022/03/31 09:37:32;;;;;;;;;;;6.30;94.30;;;;;;5051373;28;20025;-86
2022/03/31 09:39:57;;;;;;;14.05;10.00;;;6.10;94.20;;;;;;5051565;28;19908;-86
2022/03/31 09:42:23;;;;;;;14.48;9.25;;;5.80;94.90;;;;;;5046310;28;20116;-87
2022/03/31 09:44:56;;;;;;;12.63;9.60;;;5.80;95.00;;;;;;5063627;28;20029;-86
2022/03/31 09:47:22;;;;;;;13.80;9.77;;;5.90;94.50;;;;;;5068913;28;20020;-86
2022/03/31 09:49:55;;;;;;;11.75;7.65;;;5.90;94.80;;;;;;5068803;28;20036;-88
2022/03/31 09:52:21;;;;;;;12.93;8.68;;;6.00;94.50;;;;;;5069613;28;20056;-86
2022/03/31 09:54:48;;;;;;;12.88;7.80;;;5.90;94.50;;;;;;5089559;28;20050;-87
2022/03/31 09:57:17;;;;;;;9.68;7.13;;;5.80;94.90;;;;;;5072468;28;20109;-87
2022/03/31 09:59:49;;;;;;;13.30;8.48;;;5.70;94.60;;;;;;5068077;28;20081;-86
2022/03/31 10:02:15;;;;;;;13.48;9.10;;;5.70;95.10;;;;;;5060120;28;20457;-86
2022/03/31 10:04:44;;;;;;;12.50;7.85;;;5.60;94.90;;;;;;5055822;28;20090;-86
2022/03/31 10:07:10;;;;;;;12.13;8.02;;;5.60;95.10;;;;;;5050411;28;20020;-85
2022/03/31 10:09:39;;;;;;;10.43;6.97;;;5.70;95.00;;;;;;5068743;28;20056;-88
2022/03/31 10:12:26;;;;;;;12.13;7.10;;;5.70;94.90;;;;;;5068219;28;20025;-87
2022/03/31 10:15:12;;;;;;;12.10;7.95;;;5.70;94.90;;;;;;5043881;28;20112;-86
2022/03/31 10:17:37;;;;;;;16.23;9.55;;;5.50;95.40;;;;;;5068465;28;20651;-85
2022/03/31 10:20:07;;;;;;;15.65;9.70;;;5.50;95.30;;;;;;5070933;28;20029;-86
2022/03/31 10:25:17;;;;;;;15.95;11.10;;;5.70;95.10;;;;;;5072679;28;20028;-88
2022/03/31 10:27:45;;;;;;;18.67;11.48;;;5.70;94.80;;;;;;5055897;28;20024;-87
2022/03/31 10:30:15;;;;;;;15.85;11.32;;;5.70;95.00;;;;;;5052422;28;20013;-86
2022/03/31 10:32:58;;;;;;;15.10;11.43;;;5.80;94.70;;;;;;5068096;28;20056;-85
2022/03/31 10:35:32;;;;;;;17.67;12.35;;;5.80;94.90;;;;;;5072290;28;20040;-85
2022/03/31 10:38:09;;;;;;;14.90;10.82;;;5.90;94.40;;;;;;5054919;28;20527;-85
2022/03/31 10:40:43;;;;;;;18.17;11.73;;;5.90;94.80;;;;;;5055716;28;20089;-86
2022/03/31 10:43:22;;;;;;;15.85;12.25;;;5.90;94.20;;;;;;5055153;28;20036;-87
2022/03/31 10:45:48;;;;;;;18.77;11.30;;;6.00;94.20;;;;;;5073021;28;20032;-85
2022/03/31 10:48:24;;;;;;;15.80;11.05;;;6.00;93.80;;;;;;5054185;28;20024;-86
2022/03/31 10:51:11;;;;;;;14.77;11.30;;;6.00;94.00;;;;;;5054236;28;20028;-86
2022/03/31 10:53:44;;;;;;;18.45;12.40;;;6.10;94.00;;;;;;5072817;28;20020;-86
2022/03/31 10:56:36;;;;;;;20.70;11.23;;;6.20;93.80;;;;;;5071274;28;20040;-87
2022/03/31 10:59:05;;;;;;;20.70;12.57;;;6.20;93.50;;;;;;5069957;28;20048;-87
2022/03/31 11:01:35;;;;;;;16.15;11.20;;;6.10;93.80;;;;;;5074131;28;20036;-85
2022/03/31 11:04:03;;;;;;;17.55;11.38;;;6.20;93.90;;;;;;5092400;28;20062;-87
2022/03/31 11:06:29;;;;;;;18.52;12.15;;;6.30;93.30;;;;;;5054659;28;20016;-86
2022/03/31 11:08:55;;;;;;;17.73;11.48;;;6.20;93.70;;;;;;5053655;28;20036;-85
2022/03/31 11:11:27;;;;;;;20.02;11.40;;;6.30;93.60;;;;;;5053563;28;20126;-85
2022/03/31 11:13:55;;;;;;;15.43;10.93;;;6.30;93.50;;;;;;5055205;28;20457;-87
2022/03/31 11:16:22;;;;;;;15.07;10.50;;;6.30;92.90;;;;;;5053441;28;20029;-87
2022/03/31 11:18:59;;;;;;;15.98;10.40;;;6.40;93.80;;;;;;5072010;28;20055;-85
2022/03/31 11:21:33;;;;;;;15.93;10.13;;;6.50;93.20;;;;;;5071834;28;20080;-87
2022/03/31 11:23:58;;;;;;;20.25;11.52;;;6.70;93.30;;;;;;5072955;28;20457;-86
2022/03/31 11:26:26;;;;;;;17.67;11.13;;;6.80;92.80;;;;;;5052956;28;20017;-85
2022/03/31 11:28:52;;;;;;;16.73;10.65;;;6.80;92.30;;;;;;5053299;28;20051;-86
2022/03/31 11:31:18;;;;;;;14.20;10.18;;;6.70;92.30;;;;;;5052715;28;20445;-86
2022/03/31 11:33:44;;;;;;;19.23;10.95;;;6.70;92.50;;;;;;5050150;28;20427;-85
2022/03/31 11:36:10;;;;;;;20.23;12.10;;;6.60;92.30;;;;;;5050981;28;20033;-87
2022/03/31 11:38:35;;;;;;;20.80;11.00;;;6.50;92.60;;;;;;5053862;28;20067;-85
2022/03/31 11:41:01;;;;;;;15.40;10.00;;;6.50;92.60;;;;;;5071737;28;20354;-85
2022/03/31 11:43:27;;;;;;;16.17;11.35;;;6.50;92.60;;;;;;5053691;28;20071;-86
2022/03/31 11:45:55;;;;;;;15.60;10.68;;;6.50;92.60;;;;;;5052728;28;20025;-85
2022/03/31 11:48:30;;;;;;;16.85;10.52;;;6.50;92.80;;;;;;5072405;28;20149;-85
2022/03/31 11:50:59;;;;;;;16.65;10.32;;;6.70;93.00;;;;;;5053891;28;20016;-88
2022/03/31 11:53:30;;;;;;;16.27;10.73;;;6.70;92.40;;;;;;5081656;28;20337;-86
2022/03/31 11:56:00;;;;;;;13.93;10.05;;;6.70;92.10;;;;;;5074976;28;20020;-86
2022/03/31 11:58:32;;;;;;;15.20;10.23;;;6.50;92.00;;;;;;5071930;28;20020;-86
2022/03/31 12:00:57;;;;;;;14.68;10.50;;;6.50;92.70;;;;;;5053320;28;20028;-86
2022/03/31 12:03:32;;;;;;;18.77;11.80;;;6.60;92.00;;;;;;5078393;28;20040;-86
2022/03/31 12:05:59;;;;;;;14.88;11.20;;;6.50;92.00;;;;;;5078592;28;20016;-87
2022/03/31 12:08:26;;;;;;;16.38;11.07;;;6.50;92.10;;;;;;5076970;28;20096;-86
2022/03/31 12:10:53;;;;;;;14.95;11.10;;;6.60;92.40;;;;;;5067079;28;20044;-86
2022/03/31 12:13:21;;;;;;;15.27;10.52;;;6.50;92.20;;;;;;5033554;28;20447;-86
2022/03/31 12:15:46;;;;;;;18.25;11.43;;;6.50;92.30;;;;;;5051447;28;20048;-86
2022/03/31 12:18:16;;;;;;;17.58;11.07;;;6.60;92.20;;;;;;5078992;28;20063;-86
2022/03/31 12:20:42;;;;;;;16.50;11.30;;;6.60;91.80;;;;;;5059479;28;20376;-85
2022/03/31 12:23:20;;;;;;;18.80;11.13;;;6.50;92.50;;;;;;5071823;28;20035;-87
2022/03/31 12:25:46;;;;;;;18.77;12.02;;;6.50;92.10;;;;;;5049928;28;20029;-88
2022/03/31 12:28:12;;;;;;;17.60;11.18;;;6.40;91.90;;;;;;5053837;28;20732;-87
2022/03/31 12:30:53;;;;;;;15.40;10.73;;;6.50;92.30;;;;;;5053875;28;20044;-85
2022/03/31 12:33:24;;;;;;;13.23;9.93;;;6.30;92.40;;;;;;5053915;28;20036;-86
2022/03/31 12:35:57;;;;;;;16.45;10.13;;;6.30;92.20;;;;;;5071833;28;20032;-87
2022/03/31 12:38:44;;;;;;;16.00;10.23;;;6.30;92.50;;;;;;5075154;28;20355;-85
2022/03/31 12:41:19;;;;;;;15.05;11.00;;;6.40;92.40;;;;;;5083791;28;20040;-89
2022/03/31 12:44:01;;;;;;;13.93;10.20;;;6.50;92.60;;;;;;5090991;28;20035;-87
2022/03/31 12:46:30;;;;;;;14.63;10.00;;;6.60;92.40;;;;;;5092087;28;20506;-88
2022/03/31 12:49:10;;;;;;;14.45;10.15;;;6.50;92.00;;;;;;5067827;28;20032;-83